sensor_id;sensor_type;location;lat;lon;timestamp;P1;durP1;ratioP1;P2;durP2;ratioP2
25621;SDS011;13487;39.360;22.962;2022-12-18T00:00:44;0.47;;;0.47;;
25621;SDS011;13487;39.360;22.962;2022-12-18T00:03:12;0.53;;;0.53;;
25621;SDS011;13487;39.360;22.962;2022-12-18T00:05:49;0.70;;;0.70;;
25621;SDS011;13487;39.360;22.962;2022-12-18T00:08:15;0.47;;;0.47;;
25621;SDS011;13487;39.360;22.962;2022-12-18T00:10:42;3.03;;;1.50;;
25621;SDS011;13487;39.360;22.962;2022-12-18T00:13:09;1.87;;;1.73;;
25621;SDS011;13487;39.360;22.962;2022-12-18T00:15:35;1.07;;;1.07;;
25621;SDS011;13487;39.360;22.962;2022-12-18T00:18:02;4.57;;;2.97;;
25621;SDS011;13487;39.360;22.962;2022-12-18T00:20:28;2.30;;;2.10;;
25621;SDS011;13487;39.360;22.962;2022-12-18T00:22:54;2.93;;;2.70;;
25621;SDS011;13487;39.360;22.962;2022-12-18T00:25:20;1.83;;;1.70;;
25621;SDS011;13487;39.360;22.962;2022-12-18T00:27:46;3.77;;;2.57;;
25621;SDS011;13487;39.360;22.962;2022-12-18T00:30:11;2.03;;;1.67;;
25621;SDS011;13487;39.360;22.962;2022-12-18T00:32:37;2.63;;;2.43;;
25621;SDS011;13487;39.360;22.962;2022-12-18T00:35:04;10.43;;;3.30;;
25621;SDS011;13487;39.360;22.962;2022-12-18T00:37:30;4.07;;;2.47;;
25621;SDS011;13487;39.360;22.962;2022-12-18T00:39:56;2.33;;;2.17;;
25621;SDS011;13487;39.360;22.962;2022-12-18T00:42:21;2.47;;;2.27;;
25621;SDS011;13487;39.360;22.962;2022-12-18T00:45:06;3.97;;;1.83;;
25621;SDS011;13487;39.360;22.962;2022-12-18T00:47:32;5.17;;;1.87;;
25621;SDS011;13487;39.360;22.962;2022-12-18T00:49:58;2.37;;;2.27;;
25621;SDS011;13487;39.360;22.962;2022-12-18T00:52:23;1.50;;;1.40;;
25621;SDS011;13487;39.360;22.962;2022-12-18T00:54:49;12.60;;;2.83;;
25621;SDS011;13487;39.360;22.962;2022-12-18T00:57:15;15.23;;;4.83;;
25621;SDS011;13487;39.360;22.962;2022-12-18T00:59:40;6.13;;;2.63;;
25621;SDS011;13487;39.360;22.962;2022-12-18T01:02:06;0.73;;;0.70;;
25621;SDS011;13487;39.360;22.962;2022-12-18T01:04:32;1.87;;;1.73;;
25621;SDS011;13487;39.360;22.962;2022-12-18T01:06:58;1.97;;;1.87;;
25621;SDS011;13487;39.360;22.962;2022-12-18T01:09:24;2.10;;;1.83;;
25621;SDS011;13487;39.360;22.962;2022-12-18T01:11:51;1.57;;;1.47;;
25621;SDS011;13487;39.360;22.962;2022-12-18T01:14:16;3.43;;;2.40;;
25621;SDS011;13487;39.360;22.962;2022-12-18T01:16:42;2.87;;;2.50;;
25621;SDS011;13487;39.360;22.962;2022-12-18T01:19:08;3.90;;;3.13;;
25621;SDS011;13487;39.360;22.962;2022-12-18T01:21:34;4.83;;;2.67;;
25621;SDS011;13487;39.360;22.962;2022-12-18T01:23:59;7.33;;;2.53;;
25621;SDS011;13487;39.360;22.962;2022-12-18T01:26:25;0.77;;;0.77;;
25621;SDS011;13487;39.360;22.962;2022-12-18T01:28:54;4.07;;;3.27;;
25621;SDS011;13487;39.360;22.962;2022-12-18T01:31:22;4.30;;;2.03;;
25621;SDS011;13487;39.360;22.962;2022-12-18T01:33:52;1.80;;;1.70;;
25621;SDS011;13487;39.360;22.962;2022-12-18T01:36:32;1.63;;;1.30;;
25621;SDS011;13487;39.360;22.962;2022-12-18T01:39:04;0.87;;;0.87;;
25621;SDS011;13487;39.360;22.962;2022-12-18T01:41:32;0.77;;;0.77;;
25621;SDS011;13487;39.360;22.962;2022-12-18T01:50:21;0.40;;;0.40;;
25621;SDS011;13487;39.360;22.962;2022-12-18T01:52:56;1.57;;;1.47;;
25621;SDS011;13487;39.360;22.962;2022-12-18T01:55:31;2.33;;;1.17;;
25621;SDS011;13487;39.360;22.962;2022-12-18T01:58:02;30.97;;;1.80;;
25621;SDS011;13487;39.360;22.962;2022-12-18T02:00:29;2.53;;;2.30;;
25621;SDS011;13487;39.360;22.962;2022-12-18T02:02:55;1.07;;;0.97;;
25621;SDS011;13487;39.360;22.962;2022-12-18T02:08:08;1.77;;;1.67;;
25621;SDS011;13487;39.360;22.962;2022-12-18T02:13:36;2.10;;;1.47;;
25621;SDS011;13487;39.360;22.962;2022-12-18T02:16:23;0.97;;;0.97;;
25621;SDS011;13487;39.360;22.962;2022-12-18T02:18:59;2.23;;;1.23;;
25621;SDS011;13487;39.360;22.962;2022-12-18T02:21:48;1.40;;;1.30;;
25621;SDS011;13487;39.360;22.962;2022-12-18T02:27:11;0.77;;;0.77;;
25621;SDS011;13487;39.360;22.962;2022-12-18T02:29:43;1.17;;;1.17;;
25621;SDS011;13487;39.360;22.962;2022-12-18T02:32:17;1.13;;;1.03;;
25621;SDS011;13487;39.360;22.962;2022-12-18T02:34:49;0.67;;;0.67;;
25621;SDS011;13487;39.360;22.962;2022-12-18T02:37:16;0.20;;;0.20;;
25621;SDS011;13487;39.360;22.962;2022-12-18T02:39:46;0.23;;;0.23;;
25621;SDS011;13487;39.360;22.962;2022-12-18T02:42:14;1.40;;;1.30;;
25621;SDS011;13487;39.360;22.962;2022-12-18T02:44:45;6.50;;;0.87;;
25621;SDS011;13487;39.360;22.962;2022-12-18T02:47:13;0.43;;;0.43;;
25621;SDS011;13487;39.360;22.962;2022-12-18T02:52:36;1.97;;;1.87;;
25621;SDS011;13487;39.360;22.962;2022-12-18T03:01:03;0.93;;;0.93;;
25621;SDS011;13487;39.360;22.962;2022-12-18T03:03:43;1.30;;;1.27;;
25621;SDS011;13487;39.360;22.962;2022-12-18T03:08:50;2.63;;;2.07;;
25621;SDS011;13487;39.360;22.962;2022-12-18T03:11:19;2.00;;;1.30;;
25621;SDS011;13487;39.360;22.962;2022-12-18T03:14:05;1.60;;;1.50;;
25621;SDS011;13487;39.360;22.962;2022-12-18T03:16:32;1.57;;;1.43;;
25621;SDS011;13487;39.360;22.962;2022-12-18T03:19:04;1.70;;;1.60;;
25621;SDS011;13487;39.360;22.962;2022-12-18T03:21:40;0.70;;;0.70;;
25621;SDS011;13487;39.360;22.962;2022-12-18T03:24:10;3.13;;;2.73;;
25621;SDS011;13487;39.360;22.962;2022-12-18T03:26:37;1.17;;;1.07;;
25621;SDS011;13487;39.360;22.962;2022-12-18T03:29:09;1.30;;;1.13;;
25621;SDS011;13487;39.360;22.962;2022-12-18T03:31:42;2.13;;;1.60;;
25621;SDS011;13487;39.360;22.962;2022-12-18T03:34:15;0.80;;;0.80;;
25621;SDS011;13487;39.360;22.962;2022-12-18T03:36:45;2.83;;;1.30;;
25621;SDS011;13487;39.360;22.962;2022-12-18T03:39:11;1.23;;;0.87;;
25621;SDS011;13487;39.360;22.962;2022-12-18T03:41:40;0.87;;;0.87;;
25621;SDS011;13487;39.360;22.962;2022-12-18T03:46:46;0.30;;;0.30;;
25621;SDS011;13487;39.360;22.962;2022-12-18T03:49:29;1.13;;;1.03;;
25621;SDS011;13487;39.360;22.962;2022-12-18T03:52:07;0.63;;;0.63;;
25621;SDS011;13487;39.360;22.962;2022-12-18T03:54:38;1.07;;;0.90;;
25621;SDS011;13487;39.360;22.962;2022-12-18T03:57:11;0.40;;;0.40;;
25621;SDS011;13487;39.360;22.962;2022-12-18T03:59:41;0.20;;;0.20;;
25621;SDS011;13487;39.360;22.962;2022-12-18T04:02:09;3.77;;;0.90;;
25621;SDS011;13487;39.360;22.962;2022-12-18T04:04:38;0.93;;;0.87;;
25621;SDS011;13487;39.360;22.962;2022-12-18T04:07:08;1.50;;;0.73;;
25621;SDS011;13487;39.360;22.962;2022-12-18T04:09:34;0.70;;;0.70;;
25621;SDS011;13487;39.360;22.962;2022-12-18T04:12:01;0.83;;;0.73;;
25621;SDS011;13487;39.360;22.962;2022-12-18T04:14:27;6.90;;;2.10;;
25621;SDS011;13487;39.360;22.962;2022-12-18T04:16:53;0.50;;;0.50;;
25621;SDS011;13487;39.360;22.962;2022-12-18T04:19:19;0.20;;;0.20;;
25621;SDS011;13487;39.360;22.962;2022-12-18T04:21:44;2.07;;;0.83;;
25621;SDS011;13487;39.360;22.962;2022-12-18T04:24:10;0.70;;;0.70;;
25621;SDS011;13487;39.360;22.962;2022-12-18T04:26:36;0.87;;;0.77;;
25621;SDS011;13487;39.360;22.962;2022-12-18T04:29:02;0.57;;;0.53;;
25621;SDS011;13487;39.360;22.962;2022-12-18T04:31:27;0.93;;;0.93;;
25621;SDS011;13487;39.360;22.962;2022-12-18T04:33:53;1.03;;;0.67;;
25621;SDS011;13487;39.360;22.962;2022-12-18T04:36:19;0.20;;;0.20;;
25621;SDS011;13487;39.360;22.962;2022-12-18T04:38:45;1.10;;;1.00;;
25621;SDS011;13487;39.360;22.962;2022-12-18T04:41:10;0.70;;;0.70;;
25621;SDS011;13487;39.360;22.962;2022-12-18T04:43:37;0.77;;;0.53;;
25621;SDS011;13487;39.360;22.962;2022-12-18T04:46:03;0.80;;;0.80;;
25621;SDS011;13487;39.360;22.962;2022-12-18T04:48:30;2.33;;;1.37;;
25621;SDS011;13487;39.360;22.962;2022-12-18T04:50:56;0.73;;;0.73;;
25621;SDS011;13487;39.360;22.962;2022-12-18T04:53:21;0.63;;;0.57;;
25621;SDS011;13487;39.360;22.962;2022-12-18T04:55:47;0.27;;;0.27;;
25621;SDS011;13487;39.360;22.962;2022-12-18T04:58:13;2.20;;;1.83;;
25621;SDS011;13487;39.360;22.962;2022-12-18T05:00:39;0.93;;;0.80;;
25621;SDS011;13487;39.360;22.962;2022-12-18T05:03:04;1.63;;;1.50;;
25621;SDS011;13487;39.360;22.962;2022-12-18T05:05:30;0.20;;;0.20;;
25621;SDS011;13487;39.360;22.962;2022-12-18T05:07:56;0.30;;;0.30;;
25621;SDS011;13487;39.360;22.962;2022-12-18T05:10:22;1.90;;;0.73;;
25621;SDS011;13487;39.360;22.962;2022-12-18T05:12:48;0.60;;;0.60;;
25621;SDS011;13487;39.360;22.962;2022-12-18T05:15:26;0.70;;;0.70;;
25621;SDS011;13487;39.360;22.962;2022-12-18T05:17:56;1.30;;;1.20;;
25621;SDS011;13487;39.360;22.962;2022-12-18T05:20:23;0.43;;;0.43;;
25621;SDS011;13487;39.360;22.962;2022-12-18T05:22:50;0.70;;;0.70;;
25621;SDS011;13487;39.360;22.962;2022-12-18T05:25:16;0.30;;;0.30;;
25621;SDS011;13487;39.360;22.962;2022-12-18T05:27:42;0.63;;;0.63;;
25621;SDS011;13487;39.360;22.962;2022-12-18T05:30:08;0.47;;;0.47;;
25621;SDS011;13487;39.360;22.962;2022-12-18T05:32:34;0.30;;;0.30;;
25621;SDS011;13487;39.360;22.962;2022-12-18T05:35:00;2.00;;;1.27;;
25621;SDS011;13487;39.360;22.962;2022-12-18T05:37:26;0.20;;;0.20;;
25621;SDS011;13487;39.360;22.962;2022-12-18T05:39:52;1.33;;;1.23;;
25621;SDS011;13487;39.360;22.962;2022-12-18T05:42:18;0.60;;;0.60;;
25621;SDS011;13487;39.360;22.962;2022-12-18T05:44:43;0.30;;;0.30;;
25621;SDS011;13487;39.360;22.962;2022-12-18T05:47:09;2.40;;;1.93;;
25621;SDS011;13487;39.360;22.962;2022-12-18T05:49:35;1.17;;;1.07;;
25621;SDS011;13487;39.360;22.962;2022-12-18T05:52:00;1.37;;;0.50;;
25621;SDS011;13487;39.360;22.962;2022-12-18T05:54:27;2.70;;;1.93;;
25621;SDS011;13487;39.360;22.962;2022-12-18T05:56:53;0.20;;;0.20;;
25621;SDS011;13487;39.360;22.962;2022-12-18T05:59:19;1.17;;;1.13;;
25621;SDS011;13487;39.360;22.962;2022-12-18T06:01:45;0.30;;;0.30;;
25621;SDS011;13487;39.360;22.962;2022-12-18T06:04:11;0.90;;;0.90;;
25621;SDS011;13487;39.360;22.962;2022-12-18T06:06:37;2.10;;;1.70;;
25621;SDS011;13487;39.360;22.962;2022-12-18T06:09:03;0.70;;;0.60;;
25621;SDS011;13487;39.360;22.962;2022-12-18T06:11:35;1.80;;;1.27;;
25621;SDS011;13487;39.360;22.962;2022-12-18T06:14:02;2.73;;;1.50;;
25621;SDS011;13487;39.360;22.962;2022-12-18T06:16:29;2.00;;;1.57;;
25621;SDS011;13487;39.360;22.962;2022-12-18T06:18:58;1.13;;;0.77;;
25621;SDS011;13487;39.360;22.962;2022-12-18T06:21:25;2.30;;;2.10;;
25621;SDS011;13487;39.360;22.962;2022-12-18T06:23:51;4.23;;;1.87;;
25621;SDS011;13487;39.360;22.962;2022-12-18T06:26:17;0.37;;;0.37;;
25621;SDS011;13487;39.360;22.962;2022-12-18T06:28:42;1.33;;;1.23;;
25621;SDS011;13487;39.360;22.962;2022-12-18T06:31:08;0.83;;;0.83;;
25621;SDS011;13487;39.360;22.962;2022-12-18T06:33:35;1.47;;;1.37;;
25621;SDS011;13487;39.360;22.962;2022-12-18T06:36:02;2.53;;;1.17;;
25621;SDS011;13487;39.360;22.962;2022-12-18T06:38:33;5.60;;;1.13;;
25621;SDS011;13487;39.360;22.962;2022-12-18T06:41:00;1.37;;;1.27;;
25621;SDS011;13487;39.360;22.962;2022-12-18T06:43:31;3.07;;;2.77;;
25621;SDS011;13487;39.360;22.962;2022-12-18T06:45:59;1.67;;;1.57;;
25621;SDS011;13487;39.360;22.962;2022-12-18T06:48:26;1.50;;;1.23;;
25621;SDS011;13487;39.360;22.962;2022-12-18T06:50:52;0.57;;;0.50;;
25621;SDS011;13487;39.360;22.962;2022-12-18T06:53:18;2.27;;;1.20;;
25621;SDS011;13487;39.360;22.962;2022-12-18T06:55:43;1.80;;;1.57;;
25621;SDS011;13487;39.360;22.962;2022-12-18T06:58:09;3.77;;;2.67;;
25621;SDS011;13487;39.360;22.962;2022-12-18T07:00:35;1.73;;;1.23;;
25621;SDS011;13487;39.360;22.962;2022-12-18T07:03:01;1.93;;;1.80;;
25621;SDS011;13487;39.360;22.962;2022-12-18T07:05:27;1.57;;;1.33;;
25621;SDS011;13487;39.360;22.962;2022-12-18T07:07:52;4.07;;;1.47;;
25621;SDS011;13487;39.360;22.962;2022-12-18T07:10:18;0.67;;;0.67;;
25621;SDS011;13487;39.360;22.962;2022-12-18T07:12:44;0.67;;;0.67;;
25621;SDS011;13487;39.360;22.962;2022-12-18T07:15:10;0.97;;;0.97;;
25621;SDS011;13487;39.360;22.962;2022-12-18T07:17:35;1.27;;;1.17;;
25621;SDS011;13487;39.360;22.962;2022-12-18T07:20:03;1.80;;;1.70;;
25621;SDS011;13487;39.360;22.962;2022-12-18T07:22:29;1.30;;;1.20;;
25621;SDS011;13487;39.360;22.962;2022-12-18T07:24:55;5.13;;;2.90;;
25621;SDS011;13487;39.360;22.962;2022-12-18T07:27:21;1.17;;;1.13;;
25621;SDS011;13487;39.360;22.962;2022-12-18T07:29:47;2.63;;;1.53;;
25621;SDS011;13487;39.360;22.962;2022-12-18T07:32:13;2.33;;;0.77;;
25621;SDS011;13487;39.360;22.962;2022-12-18T07:34:39;1.97;;;1.83;;
25621;SDS011;13487;39.360;22.962;2022-12-18T07:37:05;1.30;;;1.27;;
25621;SDS011;13487;39.360;22.962;2022-12-18T07:39:33;15.10;;;2.60;;
25621;SDS011;13487;39.360;22.962;2022-12-18T07:41:59;1.50;;;1.00;;
25621;SDS011;13487;39.360;22.962;2022-12-18T07:44:43;1.17;;;1.10;;
25621;SDS011;13487;39.360;22.962;2022-12-18T07:47:09;0.43;;;0.43;;
25621;SDS011;13487;39.360;22.962;2022-12-18T07:49:35;2.53;;;0.97;;
25621;SDS011;13487;39.360;22.962;2022-12-18T07:52:01;1.40;;;1.30;;
25621;SDS011;13487;39.360;22.962;2022-12-18T07:54:27;6.77;;;2.00;;
25621;SDS011;13487;39.360;22.962;2022-12-18T07:56:53;32.40;;;2.57;;
25621;SDS011;13487;39.360;22.962;2022-12-18T07:59:18;4.80;;;2.90;;
25621;SDS011;13487;39.360;22.962;2022-12-18T08:01:44;2.93;;;2.63;;
25621;SDS011;13487;39.360;22.962;2022-12-18T08:04:10;4.43;;;3.20;;
25621;SDS011;13487;39.360;22.962;2022-12-18T08:06:36;9.83;;;2.50;;
25621;SDS011;13487;39.360;22.962;2022-12-18T08:09:01;17.53;;;2.63;;
25621;SDS011;13487;39.360;22.962;2022-12-18T08:11:28;2.20;;;1.23;;
25621;SDS011;13487;39.360;22.962;2022-12-18T08:13:54;2.77;;;2.43;;
25621;SDS011;13487;39.360;22.962;2022-12-18T08:16:20;9.20;;;2.30;;
25621;SDS011;13487;39.360;22.962;2022-12-18T08:18:47;2.80;;;2.03;;
25621;SDS011;13487;39.360;22.962;2022-12-18T08:23:40;6.93;;;3.97;;
25621;SDS011;13487;39.360;22.962;2022-12-18T08:26:06;2.67;;;2.47;;
25621;SDS011;13487;39.360;22.962;2022-12-18T08:28:33;5.03;;;4.37;;
25621;SDS011;13487;39.360;22.962;2022-12-18T08:30:59;4.63;;;3.87;;
25621;SDS011;13487;39.360;22.962;2022-12-18T08:33:25;4.00;;;2.67;;
25621;SDS011;13487;39.360;22.962;2022-12-18T08:35:51;2.13;;;1.97;;
25621;SDS011;13487;39.360;22.962;2022-12-18T08:38:18;2.73;;;2.40;;
25621;SDS011;13487;39.360;22.962;2022-12-18T08:40:44;5.10;;;3.50;;
25621;SDS011;13487;39.360;22.962;2022-12-18T08:43:10;3.13;;;2.93;;
25621;SDS011;13487;39.360;22.962;2022-12-18T08:45:54;4.30;;;3.90;;
25621;SDS011;13487;39.360;22.962;2022-12-18T08:48:20;6.70;;;3.30;;
25621;SDS011;13487;39.360;22.962;2022-12-18T08:50:55;1.57;;;1.17;;
25621;SDS011;13487;39.360;22.962;2022-12-18T08:53:26;19.23;;;3.50;;
25621;SDS011;13487;39.360;22.962;2022-12-18T08:55:52;3.10;;;2.90;;
25621;SDS011;13487;39.360;22.962;2022-12-18T08:58:18;6.43;;;4.00;;
25621;SDS011;13487;39.360;22.962;2022-12-18T09:00:45;3.60;;;2.73;;
25621;SDS011;13487;39.360;22.962;2022-12-18T09:03:14;2.63;;;2.37;;
25621;SDS011;13487;39.360;22.962;2022-12-18T09:05:40;9.57;;;3.50;;
25621;SDS011;13487;39.360;22.962;2022-12-18T09:08:06;2.10;;;1.63;;
25621;SDS011;13487;39.360;22.962;2022-12-18T09:10:33;4.60;;;2.73;;
25621;SDS011;13487;39.360;22.962;2022-12-18T09:12:59;5.73;;;3.93;;
25621;SDS011;13487;39.360;22.962;2022-12-18T09:15:25;7.77;;;4.63;;
25621;SDS011;13487;39.360;22.962;2022-12-18T09:17:51;8.23;;;4.77;;
25621;SDS011;13487;39.360;22.962;2022-12-18T09:20:18;28.83;;;2.13;;
25621;SDS011;13487;39.360;22.962;2022-12-18T09:22:44;4.93;;;2.90;;
25621;SDS011;13487;39.360;22.962;2022-12-18T09:25:09;1.27;;;0.83;;
25621;SDS011;13487;39.360;22.962;2022-12-18T09:27:35;3.90;;;3.10;;
25621;SDS011;13487;39.360;22.962;2022-12-18T09:30:01;2.70;;;2.50;;
25621;SDS011;13487;39.360;22.962;2022-12-18T09:32:28;4.43;;;2.83;;
25621;SDS011;13487;39.360;22.962;2022-12-18T09:34:53;1.80;;;1.60;;
25621;SDS011;13487;39.360;22.962;2022-12-18T09:37:19;15.00;;;5.00;;
25621;SDS011;13487;39.360;22.962;2022-12-18T09:39:45;12.48;;;5.65;;
25621;SDS011;13487;39.360;22.962;2022-12-18T09:42:19;5.03;;;3.50;;
25621;SDS011;13487;39.360;22.962;2022-12-18T09:44:50;8.47;;;3.40;;
25621;SDS011;13487;39.360;22.962;2022-12-18T09:47:20;2.15;;;2.05;;
25621;SDS011;13487;39.360;22.962;2022-12-18T09:49:55;8.85;;;4.45;;
25621;SDS011;13487;39.360;22.962;2022-12-18T09:55:05;2.72;;;2.05;;
25621;SDS011;13487;39.360;22.962;2022-12-18T09:57:45;2.28;;;1.92;;
25621;SDS011;13487;39.360;22.962;2022-12-18T10:00:23;3.63;;;3.30;;
25621;SDS011;13487;39.360;22.962;2022-12-18T10:02:55;6.25;;;5.55;;
25621;SDS011;13487;39.360;22.962;2022-12-18T10:08:18;7.47;;;3.88;;
25621;SDS011;13487;39.360;22.962;2022-12-18T10:10:47;5.93;;;3.10;;
25621;SDS011;13487;39.360;22.962;2022-12-18T10:16:16;2.85;;;2.60;;
25621;SDS011;13487;39.360;22.962;2022-12-18T10:19:34;2.75;;;2.15;;
25621;SDS011;13487;39.360;22.962;2022-12-18T10:28:14;2.92;;;2.33;;
25621;SDS011;13487;39.360;22.962;2022-12-18T10:30:42;6.22;;;2.72;;
25621;SDS011;13487;39.360;22.962;2022-12-18T10:33:22;4.07;;;2.70;;
25621;SDS011;13487;39.360;22.962;2022-12-18T10:35:52;5.45;;;3.45;;
25621;SDS011;13487;39.360;22.962;2022-12-18T10:41:01;3.88;;;2.85;;
25621;SDS011;13487;39.360;22.962;2022-12-18T10:43:37;7.30;;;3.45;;
25621;SDS011;13487;39.360;22.962;2022-12-18T10:49:17;5.60;;;3.25;;
25621;SDS011;13487;39.360;22.962;2022-12-18T10:56:46;4.47;;;2.22;;
25621;SDS011;13487;39.360;22.962;2022-12-18T10:59:13;2.85;;;2.33;;
25621;SDS011;13487;39.360;22.962;2022-12-18T11:04:19;1.52;;;1.38;;
25621;SDS011;13487;39.360;22.962;2022-12-18T11:09:32;7.03;;;3.55;;
25621;SDS011;13487;39.360;22.962;2022-12-18T11:12:00;1.35;;;0.93;;
25621;SDS011;13487;39.360;22.962;2022-12-18T11:14:47;2.28;;;1.30;;
25621;SDS011;13487;39.360;22.962;2022-12-18T11:17:19;3.00;;;1.88;;
25621;SDS011;13487;39.360;22.962;2022-12-18T11:20:00;2.60;;;1.58;;
25621;SDS011;13487;39.360;22.962;2022-12-18T11:22:29;6.75;;;1.73;;
25621;SDS011;13487;39.360;22.962;2022-12-18T11:27:28;1.85;;;1.20;;
25621;SDS011;13487;39.360;22.962;2022-12-18T11:30:07;4.28;;;2.67;;
25621;SDS011;13487;39.360;22.962;2022-12-18T11:32:37;3.63;;;1.98;;
25621;SDS011;13487;39.360;22.962;2022-12-18T11:37:53;3.05;;;2.05;;
25621;SDS011;13487;39.360;22.962;2022-12-18T11:40:36;9.30;;;2.88;;
25621;SDS011;13487;39.360;22.962;2022-12-18T11:43:20;7.72;;;3.78;;
25621;SDS011;13487;39.360;22.962;2022-12-18T11:45:53;2.50;;;2.30;;
25621;SDS011;13487;39.360;22.962;2022-12-18T11:48:45;2.85;;;1.95;;
25621;SDS011;13487;39.360;22.962;2022-12-18T11:51:29;1.52;;;1.42;;
25621;SDS011;13487;39.360;22.962;2022-12-18T11:54:19;8.05;;;2.17;;
25621;SDS011;13487;39.360;22.962;2022-12-18T11:56:51;1.90;;;1.70;;
25621;SDS011;13487;39.360;22.962;2022-12-18T12:02:17;1.58;;;1.10;;
25621;SDS011;13487;39.360;22.962;2022-12-18T12:13:26;15.25;;;3.08;;
25621;SDS011;13487;39.360;22.962;2022-12-18T12:18:56;3.17;;;1.65;;
25621;SDS011;13487;39.360;22.962;2022-12-18T12:29:38;3.47;;;2.10;;
25621;SDS011;13487;39.360;22.962;2022-12-18T12:40:19;6.03;;;1.65;;
25621;SDS011;13487;39.360;22.962;2022-12-18T12:42:54;1.02;;;1.00;;
25621;SDS011;13487;39.360;22.962;2022-12-18T12:45:40;2.60;;;1.45;;
25621;SDS011;13487;39.360;22.962;2022-12-18T12:48:37;11.88;;;2.95;;
25621;SDS011;13487;39.360;22.962;2022-12-18T12:51:10;5.75;;;3.08;;
25621;SDS011;13487;39.360;22.962;2022-12-18T12:53:39;6.28;;;3.70;;
25621;SDS011;13487;39.360;22.962;2022-12-18T12:56:06;3.35;;;2.67;;
25621;SDS011;13487;39.360;22.962;2022-12-18T12:58:45;1.30;;;1.25;;
25621;SDS011;13487;39.360;22.962;2022-12-18T13:07:16;11.00;;;2.25;;
25621;SDS011;13487;39.360;22.962;2022-12-18T13:12:50;4.60;;;3.22;;
25621;SDS011;13487;39.360;22.962;2022-12-18T13:20:47;3.72;;;3.20;;
25621;SDS011;13487;39.360;22.962;2022-12-18T13:25:52;4.80;;;3.35;;
25621;SDS011;13487;39.360;22.962;2022-12-18T13:31:06;4.72;;;3.35;;
25621;SDS011;13487;39.360;22.962;2022-12-18T13:39:08;7.63;;;3.83;;
25621;SDS011;13487;39.360;22.962;2022-12-18T13:41:52;2.50;;;2.20;;
25621;SDS011;13487;39.360;22.962;2022-12-18T13:44:40;4.35;;;3.03;;
25621;SDS011;13487;39.360;22.962;2022-12-18T13:49:51;4.20;;;3.80;;
25621;SDS011;13487;39.360;22.962;2022-12-18T13:52:22;6.45;;;3.90;;
25621;SDS011;13487;39.360;22.962;2022-12-18T13:54:51;2.03;;;1.85;;
25621;SDS011;13487;39.360;22.962;2022-12-18T13:57:29;1.35;;;1.30;;
25621;SDS011;13487;39.360;22.962;2022-12-18T13:59:57;6.05;;;2.85;;
25621;SDS011;13487;39.360;22.962;2022-12-18T14:02:25;2.67;;;2.47;;
25621;SDS011;13487;39.360;22.962;2022-12-18T14:04:52;2.90;;;2.65;;
25621;SDS011;13487;39.360;22.962;2022-12-18T14:07:22;1.85;;;1.73;;
25621;SDS011;13487;39.360;22.962;2022-12-18T14:09:54;3.03;;;2.83;;
25621;SDS011;13487;39.360;22.962;2022-12-18T14:12:25;13.98;;;5.45;;
25621;SDS011;13487;39.360;22.962;2022-12-18T14:17:53;4.50;;;3.90;;
25621;SDS011;13487;39.360;22.962;2022-12-18T14:20:25;7.22;;;3.88;;
25621;SDS011;13487;39.360;22.962;2022-12-18T14:22:53;13.27;;;5.75;;
25621;SDS011;13487;39.360;22.962;2022-12-18T14:27:52;4.38;;;2.70;;
25621;SDS011;13487;39.360;22.962;2022-12-18T14:30:29;4.35;;;3.85;;
25621;SDS011;13487;39.360;22.962;2022-12-18T14:33:03;3.95;;;2.22;;
25621;SDS011;13487;39.360;22.962;2022-12-18T14:35:31;8.45;;;4.38;;
25621;SDS011;13487;39.360;22.962;2022-12-18T14:40:43;2.25;;;1.88;;
25621;SDS011;13487;39.360;22.962;2022-12-18T14:43:12;1.80;;;1.70;;
25621;SDS011;13487;39.360;22.962;2022-12-18T14:45:44;10.25;;;3.40;;
25621;SDS011;13487;39.360;22.962;2022-12-18T14:50:37;4.22;;;2.33;;
25621;SDS011;13487;39.360;22.962;2022-12-18T14:53:03;2.58;;;2.38;;
25621;SDS011;13487;39.360;22.962;2022-12-18T14:55:29;4.70;;;3.95;;
25621;SDS011;13487;39.360;22.962;2022-12-18T14:57:55;5.35;;;3.80;;
25621;SDS011;13487;39.360;22.962;2022-12-18T15:00:23;4.28;;;2.65;;
25621;SDS011;13487;39.360;22.962;2022-12-18T15:02:52;4.45;;;2.80;;
25621;SDS011;13487;39.360;22.962;2022-12-18T15:05:27;4.78;;;2.95;;
25621;SDS011;13487;39.360;22.962;2022-12-18T15:07:55;3.45;;;2.08;;
25621;SDS011;13487;39.360;22.962;2022-12-18T15:10:24;3.88;;;3.53;;
25621;SDS011;13487;39.360;22.962;2022-12-18T15:17:59;7.45;;;4.00;;
25621;SDS011;13487;39.360;22.962;2022-12-18T15:20:25;13.95;;;5.60;;
25621;SDS011;13487;39.360;22.962;2022-12-18T15:22:51;5.20;;;2.47;;
25621;SDS011;13487;39.360;22.962;2022-12-18T15:28:01;8.57;;;3.58;;
25621;SDS011;13487;39.360;22.962;2022-12-18T15:30:28;16.25;;;4.93;;
25621;SDS011;13487;39.360;22.962;2022-12-18T15:33:16;5.73;;;3.40;;
25621;SDS011;13487;39.360;22.962;2022-12-18T15:35:55;2.80;;;2.25;;
25621;SDS011;13487;39.360;22.962;2022-12-18T15:38:26;8.15;;;5.00;;
25621;SDS011;13487;39.360;22.962;2022-12-18T15:40:53;4.03;;;3.20;;
25621;SDS011;13487;39.360;22.962;2022-12-18T15:43:22;6.68;;;4.55;;
25621;SDS011;13487;39.360;22.962;2022-12-18T15:46:11;4.45;;;4.00;;
25621;SDS011;13487;39.360;22.962;2022-12-18T15:48:39;4.53;;;2.70;;
25621;SDS011;13487;39.360;22.962;2022-12-18T15:51:52;4.50;;;3.27;;
25621;SDS011;13487;39.360;22.962;2022-12-18T15:54:04;9.80;;;4.78;;
25621;SDS011;13487;39.360;22.962;2022-12-18T15:56:34;4.97;;;2.70;;
25621;SDS011;13487;39.360;22.962;2022-12-18T15:59:19;1.97;;;1.77;;
25621;SDS011;13487;39.360;22.962;2022-12-18T16:01:46;8.57;;;5.50;;
25621;SDS011;13487;39.360;22.962;2022-12-18T16:04:14;6.82;;;4.95;;
25621;SDS011;13487;39.360;22.962;2022-12-18T16:06:42;12.30;;;6.03;;
25621;SDS011;13487;39.360;22.962;2022-12-18T16:09:08;7.05;;;4.47;;
25621;SDS011;13487;39.360;22.962;2022-12-18T16:11:34;11.57;;;4.00;;
25621;SDS011;13487;39.360;22.962;2022-12-18T16:16:57;14.30;;;3.77;;
25621;SDS011;13487;39.360;22.962;2022-12-18T16:19:24;12.70;;;6.97;;
25621;SDS011;13487;39.360;22.962;2022-12-18T16:21:51;4.53;;;4.13;;
25621;SDS011;13487;39.360;22.962;2022-12-18T16:24:21;4.07;;;3.73;;
25621;SDS011;13487;39.360;22.962;2022-12-18T16:26:48;4.70;;;2.57;;
25621;SDS011;13487;39.360;22.962;2022-12-18T16:29:16;15.93;;;6.97;;
25621;SDS011;13487;39.360;22.962;2022-12-18T16:31:42;4.70;;;4.20;;
25621;SDS011;13487;39.360;22.962;2022-12-18T16:34:19;2.70;;;2.50;;
25621;SDS011;13487;39.360;22.962;2022-12-18T16:36:50;8.43;;;4.93;;
25621;SDS011;13487;39.360;22.962;2022-12-18T16:39:16;4.93;;;3.80;;
25621;SDS011;13487;39.360;22.962;2022-12-18T16:41:42;2.05;;;1.95;;
25621;SDS011;13487;39.360;22.962;2022-12-18T16:44:08;6.07;;;3.75;;
25621;SDS011;13487;39.360;22.962;2022-12-18T16:46:35;2.25;;;2.10;;
25621;SDS011;13487;39.360;22.962;2022-12-18T16:49:01;6.50;;;4.55;;
25621;SDS011;13487;39.360;22.962;2022-12-18T16:51:27;4.80;;;4.40;;
25621;SDS011;13487;39.360;22.962;2022-12-18T16:53:54;4.47;;;4.07;;
25621;SDS011;13487;39.360;22.962;2022-12-18T16:56:20;16.27;;;4.50;;
25621;SDS011;13487;39.360;22.962;2022-12-18T16:58:50;30.55;;;8.40;;
25621;SDS011;13487;39.360;22.962;2022-12-18T17:01:16;10.35;;;5.93;;
25621;SDS011;13487;39.360;22.962;2022-12-18T17:03:42;5.07;;;4.57;;
25621;SDS011;13487;39.360;22.962;2022-12-18T17:06:08;5.10;;;3.33;;
25621;SDS011;13487;39.360;22.962;2022-12-18T17:08:33;7.05;;;5.15;;
25621;SDS011;13487;39.360;22.962;2022-12-18T17:11:03;5.10;;;4.60;;
25621;SDS011;13487;39.360;22.962;2022-12-18T17:13:30;4.32;;;3.50;;